createdAt,value
2023-02-19T00:01:34.898Z,83.92
2023-02-19T00:04:03.342Z,83.53
2023-02-19T00:06:31.700Z,83.58
2023-02-19T00:08:58.958Z,83.51
2023-02-19T00:11:27.984Z,83.16
2023-02-19T00:13:55.869Z,83.25
2023-02-19T00:16:24.624Z,83.09
2023-02-19T00:18:52.090Z,83.75
2023-02-19T00:21:19.655Z,83.97
2023-02-19T00:23:50.222Z,83.53
2023-02-19T00:26:18.902Z,83.84
2023-02-19T00:28:47.258Z,83.67
2023-02-19T00:31:17.625Z,83.92
2023-02-19T00:33:45.071Z,84.31
2023-02-19T00:36:12.138Z,83.87
2023-02-19T00:38:39.857Z,83.58
2023-02-19T00:41:19.381Z,83.90
2023-02-19T00:43:49.310Z,84.67
2023-02-19T00:46:17.320Z,84.19
2023-02-19T00:48:44.476Z,84.27
2023-02-19T00:51:11.874Z,85.10
2023-02-19T00:53:39.041Z,84.30
2023-02-19T00:56:06.889Z,84.70
2023-02-19T00:58:33.886Z,84.92
2023-02-19T01:01:00.793Z,84.82
2023-02-19T01:03:27.628Z,84.82
2023-02-19T01:05:54.888Z,85.30
2023-02-19T01:08:21.828Z,86.07
2023-02-19T01:10:48.778Z,85.16
2023-02-19T01:13:15.888Z,85.08
2023-02-19T01:15:43.023Z,85.27
2023-02-19T01:18:10.258Z,84.97
2023-02-19T01:20:39.158Z,85.01
2023-02-19T01:23:06.530Z,85.10
2023-02-19T01:25:33.420Z,84.47
2023-02-19T01:28:00.290Z,84.42
2023-02-19T01:30:27.236Z,84.12
2023-02-19T01:32:54.204Z,83.75
2023-02-19T01:35:21.274Z,83.91
2023-02-19T01:37:48.275Z,83.71
2023-02-19T01:40:15.151Z,83.40
2023-02-19T01:42:44.345Z,83.72
2023-02-19T01:45:14.316Z,84.43
2023-02-19T01:47:43.386Z,83.49
2023-02-19T01:50:10.368Z,83.41
2023-02-19T01:52:37.539Z,83.45
2023-02-19T01:55:07.782Z,84.07
2023-02-19T01:57:38.282Z,83.81
2023-02-19T02:00:08.392Z,83.38
2023-02-19T02:02:35.298Z,83.55
2023-02-19T02:05:02.388Z,83.59
2023-02-19T02:07:32.250Z,83.60
2023-02-19T02:10:02.372Z,83.70
2023-02-19T02:12:29.739Z,84.09
2023-02-19T02:14:56.480Z,84.37
2023-02-19T02:17:26.297Z,84.42
2023-02-19T02:19:56.039Z,84.14
2023-02-19T02:22:25.900Z,84.30
2023-02-19T02:24:55.790Z,84.24
2023-02-19T02:27:31.201Z,84.41
2023-02-19T02:30:00.989Z,84.27
2023-02-19T02:32:31.128Z,84.29
2023-02-19T02:35:01.345Z,84.44
2023-02-19T02:37:31.153Z,84.63
2023-02-19T02:39:58.793Z,84.25
2023-02-19T02:42:28.666Z,84.41
2023-02-19T02:44:59.016Z,84.42
2023-02-19T02:47:29.048Z,84.66
2023-02-19T02:50:00.301Z,84.00
2023-02-19T02:52:30.196Z,84.19
2023-02-19T02:55:02.402Z,83.92
2023-02-19T02:57:29.532Z,84.05
2023-02-19T02:59:56.802Z,83.40
2023-02-19T03:02:24.955Z,83.54
2023-02-19T03:04:57.925Z,83.33
2023-02-19T03:07:27.078Z,83.11
2023-02-19T03:09:55.976Z,83.71
2023-02-19T03:12:27.055Z,83.59
2023-02-19T03:14:59.324Z,82.76
2023-02-19T03:17:35.611Z,82.33
2023-02-19T03:20:05.869Z,82.32
2023-02-19T03:22:34.708Z,81.98
2023-02-19T03:25:08.514Z,81.86
2023-02-19T03:27:36.277Z,81.45
2023-02-19T03:30:05.172Z,81.70
2023-02-19T03:32:34.667Z,81.69
2023-02-19T03:35:06.491Z,81.72
2023-02-19T03:37:36.882Z,80.92
2023-02-19T03:40:03.802Z,80.64
2023-02-19T03:42:37.592Z,80.68
2023-02-19T03:45:08.223Z,80.43
2023-02-19T03:47:38.051Z,80.46
2023-02-19T03:50:07.852Z,80.11
2023-02-19T03:52:37.778Z,80.56
2023-02-19T03:55:07.592Z,80.73
2023-02-19T03:57:34.670Z,80.60
2023-02-19T04:00:04.552Z,80.82
2023-02-19T04:02:31.737Z,80.73
2023-02-19T04:05:03.404Z,80.79
2023-02-19T04:07:33.610Z,80.63
2023-02-19T04:10:00.912Z,80.63
2023-02-19T04:12:28.674Z,80.32
2023-02-19T04:15:00.966Z,80.24
2023-02-19T04:17:30.986Z,80.33
2023-02-19T04:19:59.172Z,79.94
2023-02-19T04:22:26.632Z,78.89
2023-02-19T04:24:55.647Z,79.07
2023-02-19T04:27:22.403Z,79.07
2023-02-19T04:29:49.177Z,78.84
2023-02-19T04:32:15.940Z,78.84
2023-02-19T04:34:42.664Z,78.08
2023-02-19T04:37:09.448Z,78.46
2023-02-19T04:39:38.414Z,78.12
2023-02-19T04:42:05.123Z,78.44
2023-02-19T04:44:33.156Z,77.68
2023-02-19T04:47:00.006Z,76.94
2023-02-19T04:49:26.751Z,77.37
2023-02-19T04:51:53.473Z,76.85
2023-02-19T04:54:20.192Z,76.27
2023-02-19T04:56:46.931Z,76.58
2023-02-19T04:59:13.771Z,77.42
2023-02-19T05:01:40.503Z,78.13
2023-02-19T05:04:07.236Z,76.73
2023-02-19T05:06:34.039Z,76.51
2023-02-19T05:09:00.826Z,76.27
2023-02-19T05:11:27.636Z,76.43
2023-02-19T05:13:55.600Z,76.26
2023-02-19T05:16:22.594Z,76.47
2023-02-19T05:18:49.272Z,76.92
2023-02-19T05:21:16.204Z,77.49
2023-02-19T05:23:43.039Z,77.96
2023-02-19T05:26:12.707Z,77.76
2023-02-19T05:28:39.423Z,77.50
2023-02-19T05:31:07.939Z,77.49
2023-02-19T05:33:35.527Z,77.75
2023-02-19T05:36:05.446Z,78.40
2023-02-19T05:38:32.236Z,79.48
2023-02-19T05:41:01.987Z,78.01
2023-02-19T05:43:28.681Z,77.58
2023-02-19T05:45:58.372Z,77.81
2023-02-19T05:48:25.128Z,77.78
2023-02-19T05:50:51.970Z,77.19
2023-02-19T05:53:21.152Z,77.16
2023-02-19T05:55:47.950Z,77.34
2023-02-19T05:58:14.645Z,77.68
2023-02-19T06:00:41.385Z,77.19
2023-02-19T06:03:08.120Z,77.02
2023-02-19T06:05:34.863Z,77.16
2023-02-19T06:08:01.636Z,77.07
2023-02-19T06:10:28.510Z,76.97
2023-02-19T06:12:55.231Z,76.90
2023-02-19T06:15:22.042Z,77.13
2023-02-19T06:17:49.222Z,77.43
2023-02-19T06:20:16.168Z,77.60
2023-02-19T06:22:42.869Z,77.46
2023-02-19T06:25:12.708Z,77.22
2023-02-19T06:27:39.892Z,77.77
2023-02-19T06:30:07.115Z,77.80
2023-02-19T06:32:33.893Z,77.75
2023-02-19T06:35:00.577Z,77.39
2023-02-19T06:37:29.600Z,77.54
2023-02-19T06:39:56.320Z,77.67
2023-02-19T06:42:23.021Z,77.13
2023-02-19T06:44:49.812Z,76.89
2023-02-19T06:47:16.639Z,76.76
2023-02-19T06:49:43.407Z,76.89
2023-02-19T06:52:10.128Z,77.10
2023-02-19T06:54:36.852Z,77.20
2023-02-19T06:57:03.873Z,77.07
2023-02-19T06:59:30.693Z,77.42
2023-02-19T07:01:57.393Z,78.10
2023-02-19T07:04:24.165Z,77.52
2023-02-19T07:06:51.104Z,77.34
2023-02-19T07:09:17.928Z,77.15
2023-02-19T07:11:44.629Z,77.26
2023-02-19T07:14:14.827Z,77.35
2023-02-19T07:16:42.059Z,77.11
2023-02-19T07:19:10.187Z,77.28
2023-02-19T07:21:38.020Z,77.30
2023-02-19T07:24:05.721Z,77.16
2023-02-19T07:26:32.513Z,76.98
2023-02-19T07:28:59.222Z,77.25
2023-02-19T07:31:26.194Z,76.92
2023-02-19T07:33:53.142Z,76.84
2023-02-19T07:36:20.511Z,76.85
2023-02-19T07:38:47.342Z,77.01
2023-02-19T07:41:14.361Z,76.52
2023-02-19T07:43:41.191Z,76.99
2023-02-19T07:46:12.856Z,76.70
2023-02-19T07:48:40.506Z,76.19
2023-02-19T07:51:08.495Z,76.02
2023-02-19T07:53:35.932Z,76.43
2023-02-19T07:56:04.222Z,76.39
2023-02-19T07:58:31.325Z,76.09
2023-02-19T08:00:58.426Z,76.02
2023-02-19T08:03:25.386Z,75.73
2023-02-19T08:05:53.971Z,75.67
2023-02-19T08:08:20.856Z,75.56
2023-02-19T08:10:50.833Z,75.83
2023-02-19T08:13:21.057Z,75.47
2023-02-19T08:15:48.801Z,75.39
2023-02-19T08:18:16.574Z,75.52
2023-02-19T08:20:43.966Z,75.73
2023-02-19T08:23:11.205Z,75.19
2023-02-19T08:25:38.276Z,75.24
2023-02-19T08:28:05.471Z,75.24
2023-02-19T08:30:32.848Z,75.25
2023-02-19T08:33:02.280Z,75.74
2023-02-19T08:35:29.394Z,75.36
2023-02-19T08:37:57.636Z,75.32
2023-02-19T08:40:25.282Z,75.50
2023-02-19T08:42:52.277Z,75.15
2023-02-19T08:45:19.153Z,75.24
2023-02-19T08:47:46.315Z,74.76
2023-02-19T08:50:13.068Z,74.72
2023-02-19T08:52:39.973Z,75.22
2023-02-19T08:55:07.195Z,75.03
2023-02-19T08:57:35.910Z,74.98
2023-02-19T09:00:02.636Z,75.11
2023-02-19T09:02:29.418Z,73.80
2023-02-19T09:04:56.195Z,73.01
2023-02-19T09:07:23.352Z,72.47
2023-02-19T09:09:50.167Z,73.19
2023-02-19T09:12:17.159Z,73.19
2023-02-19T09:14:44.047Z,72.20
2023-02-19T09:17:11.102Z,71.70
2023-02-19T09:19:37.971Z,71.97
2023-02-19T09:22:05.211Z,71.40
2023-02-19T09:24:32.697Z,71.50
2023-02-19T09:26:59.861Z,70.74
2023-02-19T09:29:27.563Z,70.97
2023-02-19T09:31:57.913Z,72.01
2023-02-19T09:34:25.124Z,70.72
2023-02-19T09:36:52.502Z,70.41
2023-02-19T09:39:19.451Z,69.29
2023-02-19T09:41:50.225Z,69.06
2023-02-19T09:44:21.067Z,68.20
2023-02-19T09:46:49.381Z,68.82
2023-02-19T09:49:18.733Z,68.45
2023-02-19T09:51:48.778Z,68.41
2023-02-19T09:54:22.068Z,68.14
2023-02-19T09:56:48.948Z,67.88
2023-02-19T09:59:18.988Z,67.22
2023-02-19T10:01:48.628Z,67.46
2023-02-19T10:04:15.827Z,67.09
2023-02-19T10:06:42.922Z,67.25
2023-02-19T10:09:14.100Z,68.71
2023-02-19T10:11:42.128Z,71.14
2023-02-19T10:14:13.571Z,69.48
2023-02-19T10:16:41.767Z,71.43
2023-02-19T10:19:10.874Z,67.67
2023-02-19T10:21:38.357Z,66.88
2023-02-19T10:24:06.561Z,64.29
2023-02-19T10:26:36.970Z,63.76
2023-02-19T10:29:04.455Z,64.33
2023-02-19T10:31:32.910Z,64.27
2023-02-19T10:34:02.230Z,64.14
2023-02-19T10:36:32.569Z,63.15
2023-02-19T10:39:00.988Z,63.47
2023-02-19T10:41:29.097Z,62.60
2023-02-19T10:44:01.228Z,62.47
2023-02-19T10:46:30.152Z,61.81
2023-02-19T10:48:58.532Z,62.17
2023-02-19T10:51:30.053Z,61.40
2023-02-19T10:53:59.992Z,61.26
2023-02-19T10:56:29.246Z,60.79
2023-02-19T10:58:56.642Z,60.65
2023-02-19T11:01:26.082Z,60.72
2023-02-19T11:03:53.904Z,60.71
2023-02-19T11:06:22.464Z,59.96
2023-02-19T11:08:52.617Z,59.27
2023-02-19T11:11:22.494Z,58.69
2023-02-19T11:13:49.575Z,57.78
2023-02-19T11:16:16.717Z,58.18
2023-02-19T11:18:45.291Z,58.23
2023-02-19T11:21:15.488Z,57.70
2023-02-19T11:23:45.480Z,57.71
2023-02-19T11:26:15.685Z,58.26
2023-02-19T11:28:43.436Z,57.41
2023-02-19T11:31:14.011Z,58.13
2023-02-19T11:33:44.530Z,57.93
2023-02-19T11:36:14.707Z,58.45
2023-02-19T11:38:42.714Z,58.42
2023-02-19T11:41:13.205Z,58.03
2023-02-19T11:43:41.598Z,57.23
2023-02-19T11:46:11.586Z,56.58
2023-02-19T11:48:39.983Z,56.13
2023-02-19T11:51:15.508Z,55.65
2023-02-19T11:53:49.775Z,55.21
2023-02-19T11:56:20.152Z,55.41
2023-02-19T11:58:47.482Z,55.11
2023-02-19T12:01:17.736Z,55.15
2023-02-19T12:03:48.200Z,54.78
2023-02-19T12:06:23.724Z,53.92
2023-02-19T12:08:53.790Z,53.59
2023-02-19T12:11:23.736Z,54.87
2023-02-19T12:13:53.799Z,54.37
2023-02-19T12:16:24.005Z,53.83
2023-02-19T12:18:59.434Z,55.00
2023-02-19T12:21:26.866Z,55.29
2023-02-19T12:23:55.162Z,54.55
2023-02-19T12:26:25.153Z,54.86
2023-02-19T12:28:55.071Z,55.66
2023-02-19T12:31:28.013Z,55.83
2023-02-19T12:33:57.319Z,56.37
2023-02-19T12:36:27.495Z,56.34
2023-02-19T12:38:55.036Z,55.93
2023-02-19T12:41:22.533Z,56.11
2023-02-19T12:43:52.680Z,56.53
2023-02-19T12:46:22.902Z,56.62
2023-02-19T12:48:53.781Z,56.61
2023-02-19T12:51:21.109Z,57.18
2023-02-19T12:53:53.124Z,57.18
2023-02-19T12:56:23.835Z,56.74
2023-02-19T12:58:53.920Z,56.71
2023-02-19T13:01:24.088Z,57.43
2023-02-19T13:03:55.002Z,57.23
2023-02-19T13:06:24.974Z,57.59
2023-02-19T13:09:06.494Z,57.52
2023-02-19T13:11:36.596Z,57.89
2023-02-19T13:14:11.805Z,57.62
2023-02-19T13:16:40.708Z,58.01
2023-02-19T13:19:07.807Z,58.41
2023-02-19T13:21:40.260Z,58.66
2023-02-19T13:24:09.974Z,58.57
2023-02-19T13:26:39.942Z,58.77
2023-02-19T13:29:10.054Z,58.66
2023-02-19T13:31:40.134Z,58.81
2023-02-19T13:34:10.301Z,59.69
2023-02-19T13:36:37.742Z,59.56
2023-02-19T13:39:06.106Z,60.71
2023-02-19T13:41:35.986Z,59.92
2023-02-19T13:44:04.413Z,59.36
2023-02-19T13:46:34.461Z,60.34
2023-02-19T13:49:04.602Z,59.23
2023-02-19T13:51:34.792Z,59.92
2023-02-19T13:54:02.075Z,60.57
2023-02-19T13:56:30.558Z,59.92
2023-02-19T13:59:01.889Z,60.13
2023-02-19T14:01:32.229Z,60.23
2023-02-19T14:04:02.756Z,60.82
2023-02-19T14:06:29.741Z,61.48
2023-02-19T14:08:58.062Z,60.90
2023-02-19T14:11:32.654Z,61.55
2023-02-19T14:14:02.023Z,61.46
2023-02-19T14:16:29.254Z,60.75
2023-02-19T14:18:56.712Z,60.58
2023-02-19T14:21:26.251Z,61.13
2023-02-19T14:23:56.043Z,61.58
2023-02-19T14:26:24.082Z,61.30
2023-02-19T14:28:52.188Z,61.40
2023-02-19T14:31:22.357Z,62.36
2023-02-19T14:33:50.707Z,61.87
2023-02-19T14:36:20.749Z,61.46
2023-02-19T14:38:52.313Z,61.28
2023-02-19T14:41:20.412Z,61.82
2023-02-19T14:43:49.406Z,62.03
2023-02-19T14:46:16.803Z,62.26
2023-02-19T14:48:46.115Z,61.70
2023-02-19T14:51:16.028Z,61.22
2023-02-19T14:53:45.252Z,62.10
2023-02-19T14:56:15.496Z,61.70
2023-02-19T14:58:42.701Z,61.60
2023-02-19T15:01:25.576Z,62.27
2023-02-19T15:03:54.526Z,61.13
2023-02-19T15:06:24.121Z,61.93
2023-02-19T15:08:53.238Z,62.04
2023-02-19T15:11:22.073Z,61.64
2023-02-19T15:13:51.189Z,61.93
2023-02-19T15:16:20.134Z,62.03
2023-02-19T15:18:48.996Z,62.75
2023-02-19T15:21:21.637Z,62.42
2023-02-19T15:23:48.797Z,62.00
2023-02-19T15:26:20.392Z,62.99
2023-02-19T15:28:47.252Z,63.05
2023-02-19T15:31:15.888Z,62.29
2023-02-19T15:33:46.007Z,61.71
2023-02-19T15:36:13.884Z,62.47
2023-02-19T15:38:40.916Z,61.71
2023-02-19T15:41:15.005Z,62.19
2023-02-19T15:43:45.146Z,62.52
2023-02-19T15:46:15.728Z,62.27
2023-02-19T15:48:46.372Z,62.02
2023-02-19T15:51:16.392Z,61.82
2023-02-19T15:53:47.826Z,61.58
2023-02-19T15:56:15.182Z,61.82
2023-02-19T15:58:45.995Z,61.35
2023-02-19T16:01:13.672Z,61.70
2023-02-19T16:03:40.946Z,61.32
2023-02-19T16:06:10.904Z,61.37
2023-02-19T16:08:39.170Z,62.28
2023-02-19T16:11:07.504Z,62.21
2023-02-19T16:13:35.880Z,61.85
2023-02-19T16:16:06.553Z,60.94
2023-02-19T16:18:33.929Z,61.33
2023-02-19T16:21:01.521Z,62.00
2023-02-19T16:23:29.110Z,61.19
2023-02-19T16:25:59.192Z,61.18
2023-02-19T16:28:27.342Z,61.01
2023-02-19T16:30:56.869Z,60.36
2023-02-19T16:33:26.845Z,60.28
2023-02-19T16:35:53.762Z,60.73
2023-02-19T16:38:21.200Z,60.44
2023-02-19T16:40:49.398Z,60.37
2023-02-19T16:43:17.469Z,61.39
2023-02-19T16:45:44.636Z,61.72
2023-02-19T16:48:12.479Z,61.08
2023-02-19T16:50:41.653Z,61.08
2023-02-19T16:53:17.328Z,61.28
2023-02-19T16:55:44.311Z,60.92
2023-02-19T16:58:11.353Z,61.40
2023-02-19T17:00:38.436Z,61.16
2023-02-19T17:03:09.592Z,62.41
2023-02-19T17:05:37.478Z,62.36
2023-02-19T17:08:07.039Z,61.68
2023-02-19T17:10:36.061Z,62.91
2023-02-19T17:13:03.021Z,61.93
2023-02-19T17:15:30.067Z,63.63
2023-02-19T17:17:56.955Z,66.96
2023-02-19T17:20:27.730Z,67.92
2023-02-19T17:22:55.217Z,66.94
2023-02-19T17:25:22.478Z,66.84
2023-02-19T17:27:51.616Z,67.62
2023-02-19T17:30:21.440Z,66.84
2023-02-19T17:32:48.464Z,66.26
2023-02-19T17:35:15.602Z,65.33
2023-02-19T17:37:42.829Z,64.63
2023-02-19T17:40:31.759Z,64.33
2023-02-19T17:42:59.985Z,64.60
2023-02-19T17:45:26.903Z,65.14
2023-02-19T17:47:53.919Z,64.29
2023-02-19T17:50:22.705Z,65.22
2023-02-19T17:52:49.923Z,66.21
2023-02-19T17:55:26.214Z,66.05
2023-02-19T17:57:53.579Z,66.14
2023-02-19T18:00:22.403Z,65.63
2023-02-19T18:02:49.321Z,65.87
2023-02-19T18:05:16.306Z,66.33
2023-02-19T18:07:43.936Z,66.78
2023-02-19T18:10:11.195Z,66.91
2023-02-19T18:12:38.385Z,68.00
2023-02-19T18:15:05.646Z,68.17
2023-02-19T18:17:32.643Z,67.34
2023-02-19T18:19:59.560Z,67.57
2023-02-19T18:22:26.541Z,67.65
2023-02-19T18:24:54.215Z,67.82
2023-02-19T18:27:23.717Z,68.76
2023-02-19T18:29:52.169Z,68.41
2023-02-19T18:32:19.839Z,68.86
2023-02-19T18:34:50.376Z,69.76
2023-02-19T18:37:17.444Z,70.39
2023-02-19T18:39:44.839Z,69.57
2023-02-19T18:42:12.697Z,69.99
2023-02-19T18:44:39.816Z,70.17
2023-02-19T18:47:07.735Z,71.36
2023-02-19T18:49:34.852Z,72.16
2023-02-19T18:52:01.821Z,72.08
2023-02-19T18:54:29.204Z,70.63
2023-02-19T18:56:56.403Z,70.83
2023-02-19T18:59:23.609Z,70.81
2023-02-19T19:01:51.466Z,70.41
2023-02-19T19:04:18.376Z,70.80
2023-02-19T19:06:45.427Z,71.96
2023-02-19T19:09:12.700Z,71.35
2023-02-19T19:11:40.929Z,72.11
2023-02-19T19:14:08.301Z,72.26
2023-02-19T19:16:35.159Z,72.51
2023-02-19T19:19:02.248Z,72.56
2023-02-19T19:21:29.157Z,72.14
2023-02-19T19:23:56.194Z,72.54
2023-02-19T19:26:23.205Z,72.52
2023-02-19T19:28:50.049Z,72.67
2023-02-19T19:31:18.308Z,72.90
2023-02-19T19:33:46.934Z,73.43
2023-02-19T19:36:14.380Z,73.41
2023-02-19T19:38:41.656Z,73.96
2023-02-19T19:41:08.537Z,74.10
2023-02-19T19:43:35.423Z,74.61
2023-02-19T19:46:04.207Z,74.13
2023-02-19T19:48:33.349Z,74.20
2023-02-19T19:51:00.336Z,75.05
2023-02-19T19:53:27.382Z,75.15
2023-02-19T19:55:54.246Z,75.59
2023-02-19T19:58:24.956Z,76.60
2023-02-19T20:00:52.315Z,76.96
2023-02-19T20:03:19.595Z,77.54
2023-02-19T20:05:47.389Z,77.46
2023-02-19T20:08:14.535Z,77.47
2023-02-19T20:10:41.750Z,77.29
2023-02-19T20:13:09.446Z,77.33
2023-02-19T20:15:36.572Z,77.85
2023-02-19T20:18:03.649Z,78.81
2023-02-19T20:20:30.815Z,78.77
2023-02-19T20:22:57.756Z,77.77
2023-02-19T20:25:25.037Z,78.04
2023-02-19T20:27:52.540Z,78.55
2023-02-19T20:30:21.843Z,78.07
2023-02-19T20:32:48.774Z,78.23
2023-02-19T20:35:16.672Z,78.42
2023-02-19T20:37:44.294Z,78.87
2023-02-19T20:40:12.179Z,79.34
2023-02-19T20:42:39.297Z,79.69
2023-02-19T20:45:06.270Z,79.74
2023-02-19T20:47:33.131Z,79.13
2023-02-19T20:50:00.145Z,79.19
2023-02-19T20:52:26.990Z,79.52
2023-02-19T20:54:55.825Z,79.73
2023-02-19T20:57:23.023Z,79.89
2023-02-19T20:59:50.491Z,80.42
2023-02-19T21:02:19.413Z,80.52
2023-02-19T21:04:46.328Z,80.02
2023-02-19T21:07:13.211Z,79.95
2023-02-19T21:09:42.459Z,79.88
2023-02-19T21:12:09.663Z,79.97
2023-02-19T21:14:36.569Z,79.77
2023-02-19T21:17:03.455Z,79.91
2023-02-19T21:19:30.369Z,79.85
2023-02-19T21:21:57.483Z,80.41
2023-02-19T21:24:24.602Z,80.58
2023-02-19T21:26:51.540Z,80.70
2023-02-19T21:29:20.134Z,81.51
2023-02-19T21:31:48.649Z,82.35
2023-02-19T21:34:16.674Z,83.29
2023-02-19T21:36:43.833Z,83.77
2023-02-19T21:39:12.563Z,82.88
2023-02-19T21:41:39.658Z,82.69
2023-02-19T21:44:06.645Z,82.61
2023-02-19T21:46:34.129Z,82.24
2023-02-19T21:49:01.550Z,82.59
2023-02-19T21:51:30.249Z,82.50
2023-02-19T21:53:57.258Z,82.63
2023-02-19T21:56:25.239Z,83.63
2023-02-19T21:58:52.140Z,83.68
2023-02-19T22:01:20.158Z,83.72
2023-02-19T22:03:47.169Z,83.77
2023-02-19T22:06:14.406Z,83.57
2023-02-19T22:08:41.417Z,83.43
2023-02-19T22:11:08.279Z,82.61
2023-02-19T22:13:35.648Z,82.52
2023-02-19T22:16:02.870Z,82.75
2023-02-19T22:18:32.807Z,82.22
2023-02-19T22:20:59.689Z,82.42
2023-02-19T22:23:26.648Z,82.50
2023-02-19T22:25:53.738Z,82.13
2023-02-19T22:28:20.610Z,82.37
2023-02-19T22:30:47.566Z,82.13
2023-02-19T22:33:14.362Z,82.38
2023-02-19T22:35:41.397Z,81.45
2023-02-19T22:38:08.319Z,81.79
2023-02-19T22:40:35.348Z,82.10
2023-02-19T22:43:02.202Z,81.92
2023-02-19T22:45:29.089Z,81.98
2023-02-19T22:47:56.636Z,81.87
2023-02-19T22:50:23.471Z,81.80
2023-02-19T22:52:50.539Z,82.75
2023-02-19T22:55:17.830Z,82.09
2023-02-19T22:57:44.777Z,82.22
2023-02-19T23:00:16.896Z,82.00
2023-02-19T23:02:43.805Z,82.01
2023-02-19T23:05:10.679Z,81.81
2023-02-19T23:07:37.530Z,81.71
2023-02-19T23:10:04.432Z,82.05
2023-02-19T23:12:31.488Z,82.06
2023-02-19T23:14:58.424Z,81.77
2023-02-19T23:17:25.187Z,82.12
2023-02-19T23:19:52.146Z,81.96
2023-02-19T23:22:19.259Z,82.16
2023-02-19T23:24:46.379Z,82.71
2023-02-19T23:27:13.249Z,82.60
2023-02-19T23:29:40.184Z,82.33
2023-02-19T23:32:07.201Z,82.33
2023-02-19T23:34:34.209Z,82.48
2023-02-19T23:37:02.526Z,82.97
2023-02-19T23:39:29.626Z,83.43
2023-02-19T23:41:57.343Z,83.05
2023-02-19T23:44:25.152Z,83.42
2023-02-19T23:46:53.369Z,84.15
2023-02-19T23:49:20.302Z,84.16
2023-02-19T23:51:47.808Z,83.41
2023-02-19T23:54:15.174Z,84.23
2023-02-19T23:56:42.077Z,83.96
2023-02-19T23:59:09.055Z,83.95
